Time;durP1;ratioP1;P1;durP2;ratioP2;P2;SDS_P1;SDS_P2;PMS_P1;PMS_P2;Temp;Humidity;BMP_temperature;BMP_pressure;BME280_temperature;BME280_humidity;BME280_pressure;Samples;Min_cycle;Max_cycle;Signal;HPM_P1;HPM_P2
2022/04/05 00:01:07;;;;;;;1.40;0.60;;;;;;;18.76;41.49;100386.63;5144123;27;20162;-62
2022/04/05 00:03:32;;;;;;;1.10;1.05;;;;;;;18.76;41.31;100391.19;5144902;27;20027;-61
2022/04/05 00:05:58;;;;;;;1.80;0.80;;;;;;;18.76;41.63;100388.50;5143897;27;20057;-61
2022/04/05 00:08:23;;;;;;;1.27;0.70;;;;;;;18.74;41.33;100391.38;5144419;27;20205;-62
2022/04/05 00:10:48;;;;;;;0.50;0.50;;;;;;;18.75;41.32;100397.59;5143775;27;20039;-62
2022/04/05 00:13:13;;;;;;;0.50;0.50;;;;;;;18.71;41.46;100397.13;5144217;27;20026;-62
2022/04/05 00:15:38;;;;;;;1.13;0.60;;;;;;;18.70;41.60;100398.16;5143940;27;20031;-62
2022/04/05 00:18:04;;;;;;;0.63;0.60;;;;;;;18.70;41.48;100395.44;5144497;28;20035;-62
2022/04/05 00:20:29;;;;;;;0.60;0.50;;;;;;;18.69;41.60;100396.41;5144115;28;20041;-62
2022/04/05 00:22:55;;;;;;;0.60;0.60;;;;;;;18.70;41.32;100403.53;5125562;28;20027;-62
2022/04/05 00:25:21;;;;;;;0.60;0.60;;;;;;;18.68;41.29;100397.44;5143446;28;20042;-62
2022/04/05 00:27:47;;;;;;;1.20;0.60;;;;;;;18.68;41.45;100400.13;5144016;28;20027;-62
2022/04/05 00:30:13;;;;;;;0.52;0.52;;;;;;;18.67;41.60;100395.78;5143708;28;20077;-61
2022/04/05 00:32:39;;;;;;;0.50;0.50;;;;;;;18.67;41.52;100393.91;5144464;28;20035;-62
2022/04/05 00:35:05;;;;;;;0.70;0.52;;;;;;;18.67;41.56;100398.47;5143425;28;20076;-61
2022/04/05 00:37:30;;;;;;;0.73;0.55;;;;;;;18.65;41.38;100405.91;5143921;28;20027;-62
2022/04/05 00:39:55;;;;;;;1.20;0.80;;;;;;;18.65;41.53;100404.03;5143462;28;20041;-58
2022/04/05 00:42:21;;;;;;;0.93;0.80;;;;;;;18.64;41.64;100407.72;5144222;28;20055;-61
2022/04/05 00:44:46;;;;;;;0.50;0.50;;;;;;;18.63;41.64;100411.44;5143444;28;20088;-61
2022/04/05 00:47:24;;;;;;;0.65;0.60;;;;;;;18.63;41.54;100406.06;5144060;28;20086;-62
2022/04/05 00:49:50;;;;;;;0.82;0.60;;;;;;;18.62;41.74;100399.00;5143727;28;20134;-61
2022/04/05 00:52:18;;;;;;;0.70;0.50;;;;;;;18.62;41.52;100404.38;5144270;28;20024;-61
2022/04/05 00:54:47;;;;;;;0.50;0.50;;;;;;;18.60;41.31;100401.03;5144208;28;20031;-61
2022/04/05 00:57:15;;;;;;;0.60;0.50;;;;;;;18.61;41.50;100401.88;5143813;28;20075;-62
2022/04/05 00:59:41;;;;;;;0.70;0.60;;;;;;;18.59;41.31;100407.44;5144186;27;20038;-61
2022/04/05 01:02:10;;;;;;;0.60;0.60;;;;;;;18.60;41.44;100416.34;5129331;27;20030;-61
2022/04/05 01:04:35;;;;;;;0.70;0.50;;;;;;;18.59;41.50;100428.13;5147709;27;20117;-61
2022/04/05 01:07:03;;;;;;;0.50;0.50;;;;;;;18.58;41.57;100421.09;5147650;27;20036;-62
2022/04/05 01:09:29;;;;;;;0.50;0.50;;;;;;;18.57;41.47;100416.72;5129219;27;20015;-59
2022/04/05 01:11:54;;;;;;;0.65;0.60;;;;;;;18.57;41.41;100414.88;5128903;27;20138;-62
2022/04/05 01:14:19;;;;;;;0.70;0.60;;;;;;;18.56;41.44;100413.16;5147302;27;20027;-62
2022/04/05 01:16:44;;;;;;;0.88;0.60;;;;;;;18.54;41.68;100409.81;5147571;27;20056;-62
2022/04/05 01:19:09;;;;;;;0.77;0.70;;;;;;;18.54;41.69;100401.75;5147454;27;20039;-62
2022/04/05 01:21:36;;;;;;;0.80;0.77;;;;;;;18.55;41.52;100406.09;5147185;27;20062;-61
2022/04/05 01:24:12;;;;;;;0.80;0.80;;;;;;;18.54;41.37;100388.28;5129291;27;20462;-61
2022/04/05 01:26:38;;;;;;;0.95;0.50;;;;;;;18.53;41.36;100383.94;5146902;27;20049;-61
2022/04/05 01:29:03;;;;;;;0.50;0.50;;;;;;;18.52;41.83;100393.03;5147168;27;20091;-61
2022/04/05 01:31:29;;;;;;;0.60;0.50;;;;;;;18.53;41.41;100388.47;5147399;27;20030;-62
2022/04/05 01:33:54;;;;;;;0.77;0.57;;;;;;;18.52;41.54;100373.31;5147338;27;20035;-62
2022/04/05 01:36:23;;;;;;;0.80;0.52;;;;;;;18.51;41.60;100379.72;5146864;27;20055;-62
2022/04/05 01:38:48;;;;;;;0.70;0.70;;;;;;;18.49;41.65;100375.38;5146840;27;20019;-62
2022/04/05 01:41:13;;;;;;;0.50;0.50;;;;;;;18.49;41.49;100369.97;5146581;27;20070;-59
2022/04/05 01:43:40;;;;;;;0.50;0.50;;;;;;;18.48;41.67;100371.00;5147312;27;20030;-60
2022/04/05 01:46:05;;;;;;;1.00;0.70;;;;;;;18.47;41.63;100366.63;5146687;27;20027;-61
2022/04/05 01:48:31;;;;;;;0.50;0.50;;;;;;;18.43;41.60;100359.91;5128669;27;20030;-61
2022/04/05 01:50:56;;;;;;;0.60;0.60;;;;;;;18.47;41.38;100372.00;5146235;27;20050;-61
2022/04/05 01:53:21;;;;;;;0.60;0.60;;;;;;;18.44;41.39;100374.22;5147195;27;20038;-60
2022/04/05 01:55:46;;;;;;;0.65;0.57;;;;;;;18.46;41.66;100386.47;5146165;27;20042;-61
2022/04/05 01:58:11;;;;;;;0.75;0.50;;;;;;;18.46;41.65;100388.34;5146565;27;20026;-61
2022/04/05 02:00:37;;;;;;;0.88;0.50;;;;;;;18.45;41.51;100386.66;5146051;27;20492;-61
2022/04/05 02:03:02;;;;;;;0.77;0.60;;;;;;;18.46;41.33;100388.34;5147072;27;20441;-61
2022/04/05 02:05:27;;;;;;;0.47;0.47;;;;;;;18.45;41.66;100392.06;5146315;27;20070;-60
2022/04/05 02:07:52;;;;;;;0.68;0.60;;;;;;;18.44;41.55;100387.69;5146895;27;20030;-61
2022/04/05 02:10:18;;;;;;;0.50;0.50;;;;;;;18.43;41.64;100389.53;5145488;27;20041;-60
2022/04/05 02:12:43;;;;;;;0.77;0.52;;;;;;;18.43;41.28;100391.38;5145880;27;20021;-61
2022/04/05 02:15:09;;;;;;;1.13;0.63;;;;;;;18.42;41.40;100387.03;5145958;27;20036;-61
2022/04/05 02:17:34;;;;;;;0.60;0.57;;;;;;;18.42;41.35;100397.78;5146456;27;20027;-61
2022/04/05 02:20:00;;;;;;;0.60;0.60;;;;;;;18.41;41.35;100402.34;5145896;27;20037;-60
2022/04/05 02:22:25;;;;;;;0.50;0.50;;;;;;;18.40;41.54;100400.66;5146565;27;20030;-61
2022/04/05 02:24:51;;;;;;;0.90;0.50;;;;;;;18.40;41.42;100414.13;5146082;27;20031;-59
2022/04/05 02:27:16;;;;;;;0.43;0.43;;;;;;;18.40;41.35;100406.03;5145929;27;20027;-61
2022/04/05 02:29:41;;;;;;;0.40;0.40;;;;;;;18.39;41.62;100412.44;5127241;27;20022;-61
2022/04/05 02:32:07;;;;;;;0.60;0.60;;;;;;;18.37;41.61;100422.53;5146169;27;20035;-61
2022/04/05 02:34:32;;;;;;;0.50;0.50;;;;;;;18.38;41.68;100412.63;5145895;27;20027;-60
2022/04/05 02:36:57;;;;;;;1.38;0.60;;;;;;;18.36;41.30;100415.50;5145955;27;20073;-61
2022/04/05 02:39:23;;;;;;;0.90;0.60;;;;;;;18.36;41.63;100417.34;5145550;27;20027;-62
2022/04/05 02:41:48;;;;;;;0.60;0.60;;;;;;;18.35;41.38;100419.22;5145796;27;20031;-61
2022/04/05 02:44:13;;;;;;;0.50;0.50;;;;;;;18.34;41.51;100422.88;5145564;27;20708;-61
2022/04/05 02:46:38;;;;;;;0.40;0.40;;;;;;;18.34;41.60;100424.75;5145742;27;20103;-62
2022/04/05 02:49:04;;;;;;;0.82;0.70;;;;;;;18.34;41.62;100427.44;5145719;27;20022;-61
2022/04/05 02:51:29;;;;;;;0.60;0.60;;;;;;;18.33;41.35;100426.59;5145630;27;20283;-61
2022/04/05 02:53:55;;;;;;;0.50;0.50;;;;;;;18.30;41.99;100415.34;5145827;27;20052;-61
2022/04/05 02:56:20;;;;;;;0.50;0.50;;;;;;;18.32;41.48;100427.63;5131336;27;20440;-61
2022/04/05 02:58:47;;;;;;;0.77;0.52;;;;;;;18.32;41.38;100424.09;5130325;27;20038;-59
2022/04/05 03:01:13;;;;;;;0.70;0.70;;;;;;;18.30;41.65;100418.88;5145132;27;20486;-61
2022/04/05 03:03:39;;;;;;;0.52;0.50;;;;;;;18.30;41.40;100416.19;5145783;27;20070;-61
2022/04/05 03:06:04;;;;;;;0.63;0.57;;;;;;;18.30;41.49;100420.72;5145128;27;20046;-61
2022/04/05 03:08:29;;;;;;;0.75;0.45;;;;;;;18.29;41.40;100417.19;5145512;27;20060;-61
2022/04/05 03:10:55;;;;;;;0.50;0.50;;;;;;;18.29;41.46;100419.91;5144732;27;20030;-61
2022/04/05 03:13:20;;;;;;;0.55;0.50;;;;;;;18.28;41.50;100417.38;5145740;27;20031;-61
2022/04/05 03:15:46;;;;;;;0.50;0.50;;;;;;;18.29;41.37;100413.69;5144738;27;20027;-61
2022/04/05 03:18:11;;;;;;;0.80;0.70;;;;;;;18.27;41.34;100410.34;5127138;27;20041;-61
2022/04/05 03:20:37;;;;;;;0.75;0.50;;;;;;;18.27;41.50;100411.16;5126396;27;20027;-61
2022/04/05 03:23:03;;;;;;;0.50;0.50;;;;;;;18.26;41.42;100409.47;5145301;27;20091;-61
2022/04/05 03:25:28;;;;;;;0.82;0.60;;;;;;;18.24;41.54;100409.66;5144451;27;20042;-61
2022/04/05 03:27:53;;;;;;;0.60;0.50;;;;;;;18.25;41.35;100418.56;5145295;27;20087;-61
2022/04/05 03:30:21;;;;;;;0.50;0.50;;;;;;;18.25;41.41;100423.94;5144051;27;20492;-61
2022/04/05 03:32:46;;;;;;;0.50;0.50;;;;;;;18.24;41.68;100416.91;5145298;27;20039;-61
2022/04/05 03:35:11;;;;;;;0.57;0.57;;;;;;;18.22;41.39;100409.00;5144304;27;20117;-61
2022/04/05 03:37:37;;;;;;;0.55;0.55;;;;;;;18.23;41.65;100416.06;5145159;27;20084;-60
2022/04/05 03:40:04;;;;;;;1.00;0.50;;;;;;;18.23;41.46;100416.06;5143893;27;20496;-60
2022/04/05 03:42:29;;;;;;;0.55;0.55;;;;;;;18.22;41.67;100410.84;5145294;27;20110;-60
2022/04/05 03:44:55;;;;;;;0.63;0.40;;;;;;;18.22;41.57;100411.69;5144276;27;20027;-61
2022/04/05 03:47:20;;;;;;;0.50;0.50;;;;;;;18.21;41.70;100404.63;5144956;27;20027;-61
2022/04/05 03:49:46;;;;;;;0.50;0.50;;;;;;;18.21;41.57;100409.16;5144322;27;20019;-60
2022/04/05 03:52:11;;;;;;;1.05;0.80;;;;;;;18.21;41.45;100415.38;5144855;27;20027;-61
2022/04/05 03:54:36;;;;;;;0.50;0.50;;;;;;;18.19;41.45;100414.75;5144523;27;20491;-61
2022/04/05 03:57:02;;;;;;;0.40;0.40;;;;;;;18.17;41.62;100415.91;5139562;27;20027;-60
2022/04/05 03:59:27;;;;;;;0.50;0.50;;;;;;;18.15;41.53;100416.09;5138040;27;20079;-61
2022/04/05 04:01:52;;;;;;;0.85;0.60;;;;;;;18.19;41.55;100421.97;5124619;27;20066;-60
2022/04/05 04:04:18;;;;;;;0.88;0.52;;;;;;;18.18;41.28;100414.91;5140998;27;20023;-61
2022/04/05 04:06:44;;;;;;;0.77;0.60;;;;;;;18.16;41.42;100423.16;5138016;27;20020;-60
2022/04/05 04:09:11;;;;;;;0.43;0.43;;;;;;;18.17;41.30;100421.28;5143563;27;20025;-61
2022/04/05 04:11:36;;;;;;;0.50;0.50;;;;;;;18.17;41.33;100421.28;5135351;27;20053;-61
2022/04/05 04:14:02;;;;;;;0.50;0.50;;;;;;;18.17;41.59;100429.38;5137376;27;20027;-60
2022/04/05 04:16:27;;;;;;;0.73;0.68;;;;;;;18.16;41.54;100427.69;5141643;27;20034;-61
2022/04/05 04:18:53;;;;;;;0.50;0.50;;;;;;;18.15;41.59;100424.19;5143744;27;20148;-61
2022/04/05 04:21:18;;;;;;;0.40;0.40;;;;;;;18.15;41.48;100426.88;5138177;28;20019;-61
2022/04/05 04:23:44;;;;;;;0.50;0.50;;;;;;;18.14;41.53;100433.28;5140602;28;20040;-61
2022/04/05 04:26:09;;;;;;;0.50;0.50;;;;;;;18.14;41.76;100413.59;5139198;28;20048;-61
2022/04/05 04:28:35;;;;;;;0.50;0.50;;;;;;;18.14;41.70;100416.28;5139716;28;20026;-61
2022/04/05 04:31:00;;;;;;;0.50;0.50;;;;;;;18.13;41.73;100419.97;5142785;28;20048;-61
2022/04/05 04:33:25;;;;;;;1.27;0.40;;;;;;;18.13;41.48;100420.81;5144228;27;20020;-60
2022/04/05 04:35:50;;;;;;;0.65;0.60;;;;;;;18.10;41.42;100409.59;5146345;27;20058;-61
2022/04/05 04:38:16;;;;;;;0.90;0.60;;;;;;;18.11;41.57;100417.47;5145160;27;20580;-61
2022/04/05 04:40:50;;;;;;;0.60;0.60;;;;;;;18.12;41.65;100415.63;5128331;27;20035;-61
2022/04/05 04:43:15;;;;;;;0.50;0.50;;;;;;;18.11;41.58;100416.63;5144731;27;20027;-61
2022/04/05 04:45:41;;;;;;;0.60;0.60;;;;;;;18.09;41.80;100408.72;5132011;27;20119;-60
2022/04/05 04:48:06;;;;;;;0.88;0.68;;;;;;;18.10;41.84;100413.09;5148520;27;20034;-61
2022/04/05 04:50:31;;;;;;;0.60;0.60;;;;;;;18.11;41.92;100412.09;5132145;27;20031;-59
2022/04/05 04:52:57;;;;;;;0.73;0.73;;;;;;;18.11;41.94;100419.31;5148058;27;20178;-60
2022/04/05 04:55:24;;;;;;;0.50;0.50;;;;;;;18.10;41.76;100417.66;5147086;27;20087;-60
2022/04/05 04:57:49;;;;;;;0.63;0.63;;;;;;;18.11;42.13;100419.31;5144985;27;20027;-60
2022/04/05 05:00:15;;;;;;;0.95;0.60;;;;;;;18.10;41.87;100414.97;5138143;27;20110;-60
2022/04/05 05:02:47;;;;;;;1.15;0.60;;;;;;;18.07;42.00;100409.91;5145741;27;20087;-61
2022/04/05 05:05:15;;;;;;;0.50;0.50;;;;;;;18.10;41.91;100414.97;5125385;27;20023;-61
2022/04/05 05:07:40;;;;;;;0.70;0.70;;;;;;;18.11;41.92;100424.69;5146293;27;20030;-61
2022/04/05 05:10:07;;;;;;;0.75;0.70;;;;;;;18.08;41.96;100417.81;5142187;27;20020;-61
2022/04/05 05:12:33;;;;;;;0.70;0.50;;;;;;;18.08;42.15;100416.97;5141593;27;20023;-61
2022/04/05 05:14:58;;;;;;;0.50;0.50;;;;;;;18.10;42.17;100414.97;5141330;27;20030;-60
2022/04/05 05:17:23;;;;;;;0.50;0.50;;;;;;;18.10;42.04;100414.97;5147319;27;20368;-61
2022/04/05 05:19:49;;;;;;;0.63;0.45;;;;;;;18.09;42.10;100416.78;5140826;27;20018;-61
2022/04/05 05:22:14;;;;;;;0.50;0.43;;;;;;;18.09;42.08;100411.41;5147206;27;20034;-61
2022/04/05 05:24:40;;;;;;;0.60;0.50;;;;;;;18.08;42.05;100409.75;5141543;27;20027;-61
2022/04/05 05:27:05;;;;;;;0.77;0.50;;;;;;;18.08;42.29;100409.75;5143774;27;20042;-61
2022/04/05 05:29:30;;;;;;;0.60;0.60;;;;;;;18.10;42.18;100409.59;5145324;27;20102;-60
2022/04/05 05:31:55;;;;;;;0.50;0.50;;;;;;;18.05;42.20;100407.38;5145368;27;20034;-61
2022/04/05 05:34:23;;;;;;;0.50;0.50;;;;;;;18.10;42.36;100425.72;5133978;27;20047;-60
2022/04/05 05:36:48;;;;;;;0.63;0.50;;;;;;;18.10;42.21;100417.66;5139375;27;20043;-59
2022/04/05 05:39:13;;;;;;;0.82;0.70;;;;;;;18.09;42.22;100424.84;5141215;27;20061;-60
2022/04/05 05:41:39;;;;;;;0.52;0.40;;;;;;;18.09;42.51;100427.56;5144817;27;20443;-60
2022/04/05 05:44:04;;;;;;;0.43;0.43;;;;;;;18.09;42.28;100426.72;5144196;27;20502;-60
2022/04/05 05:46:29;;;;;;;0.50;0.50;;;;;;;18.10;42.56;100431.94;5126011;27;20099;-60
2022/04/05 05:48:54;;;;;;;0.40;0.40;;;;;;;18.09;42.36;100427.56;5144890;27;20035;-58
2022/04/05 05:51:20;;;;;;;0.57;0.50;;;;;;;18.10;42.62;100434.63;5144822;27;20031;-59
2022/04/05 05:53:45;;;;;;;0.57;0.52;;;;;;;18.11;42.48;100438.16;5126299;27;20050;-58
2022/04/05 05:56:10;;;;;;;0.50;0.50;;;;;;;18.07;42.64;100429.59;5143966;27;20043;-60
2022/04/05 05:58:35;;;;;;;0.60;0.60;;;;;;;18.11;42.60;100440.84;5144853;27;20059;-60
2022/04/05 06:01:00;;;;;;;0.50;0.50;;;;;;;18.11;42.79;100436.28;5144137;27;20106;-60
2022/04/05 06:03:26;;;;;;;0.65;0.60;;;;;;;18.10;42.90;100434.63;5124692;27;20023;-60
2022/04/05 06:05:51;;;;;;;0.60;0.60;;;;;;;18.12;42.52;100443.34;5125871;27;20030;-58
2022/04/05 06:08:17;;;;;;;0.43;0.43;;;;;;;18.11;42.81;100441.69;5144439;27;20445;-58
2022/04/05 06:10:42;;;;;;;0.50;0.50;;;;;;;18.12;42.90;100437.97;5125842;27;20023;-59
2022/04/05 06:13:08;;;;;;;0.82;0.50;;;;;;;18.13;42.67;100430.72;5144716;27;20027;-59
2022/04/05 06:15:33;;;;;;;0.50;0.50;;;;;;;18.12;42.82;100429.91;5143471;27;20038;-58
2022/04/05 06:17:59;;;;;;;0.50;0.50;;;;;;;18.09;43.01;100415.94;5144249;27;20090;-58
2022/04/05 06:20:25;;;;;;;0.50;0.50;;;;;;;18.12;43.00;100419.13;5142982;27;20023;-58
2022/04/05 06:22:56;;;;;;;0.50;0.50;;;;;;;18.12;42.90;100421.81;5144517;27;20029;-59
2022/04/05 06:25:26;;;;;;;1.10;0.60;;;;;;;18.13;42.75;100425.34;5142676;27;20045;-57
2022/04/05 06:27:52;;;;;;;0.55;0.50;;;;;;;18.13;42.82;100423.50;5144270;27;20041;-58
2022/04/05 06:30:17;;;;;;;0.55;0.55;;;;;;;18.12;42.75;100412.91;5143662;27;20047;-59
2022/04/05 06:32:42;;;;;;;0.47;0.40;;;;;;;18.12;42.91;100424.50;5144340;27;20060;-58
2022/04/05 06:35:09;;;;;;;0.40;0.40;;;;;;;18.11;42.88;100422.84;5145314;27;20047;-60
2022/04/05 06:37:38;;;;;;;0.60;0.60;;;;;;;18.11;42.81;100422.84;5145968;27;20039;-60
2022/04/05 06:40:05;;;;;;;0.57;0.50;;;;;;;18.13;42.69;100419.97;5145219;27;20148;-60
2022/04/05 06:42:31;;;;;;;0.73;0.50;;;;;;;18.12;42.82;100423.69;5146054;27;20031;-60
2022/04/05 06:44:56;;;;;;;0.40;0.40;;;;;;;18.11;42.66;100408.56;5145601;27;20031;-61
2022/04/05 06:47:21;;;;;;;0.60;0.60;;;;;;;18.11;42.81;100412.09;5145852;27;20027;-60
2022/04/05 06:49:47;;;;;;;0.50;0.50;;;;;;;18.10;42.69;100418.50;5145662;27;20019;-59
2022/04/05 06:52:12;;;;;;;0.60;0.60;;;;;;;18.10;42.73;100420.34;5140279;27;20038;-59
2022/04/05 06:54:38;;;;;;;0.50;0.50;;;;;;;18.10;42.90;100431.09;5138501;27;20027;-59
2022/04/05 06:57:03;;;;;;;0.50;0.50;;;;;;;18.09;42.67;100430.25;5141950;27;20091;-59
2022/04/05 06:59:29;;;;;;;0.80;0.60;;;;;;;18.09;42.67;100432.94;5124729;27;20047;-59
2022/04/05 07:01:54;;;;;;;0.50;0.50;;;;;;;18.10;42.93;100436.50;5141871;27;20037;-59
2022/04/05 07:04:19;;;;;;;0.73;0.52;;;;;;;18.11;42.79;100430.09;5143277;27;20723;-58
2022/04/05 07:06:44;;;;;;;0.60;0.47;;;;;;;18.11;43.05;100427.41;5143446;27;20031;-59
2022/04/05 07:09:09;;;;;;;0.82;0.60;;;;;;;18.13;42.90;100436.13;5140677;27;20038;-59
2022/04/05 07:11:35;;;;;;;1.35;0.50;;;;;;;18.12;42.94;100435.28;5141562;27;20037;-59
2022/04/05 07:14:00;;;;;;;0.57;0.57;;;;;;;18.12;43.08;100435.28;5143172;27;20035;-57
2022/04/05 07:16:26;;;;;;;0.50;0.50;;;;;;;18.12;42.93;100429.91;5142856;27;20031;-59
2022/04/05 07:18:51;;;;;;;0.50;0.50;;;;;;;18.12;43.04;100429.06;5124508;27;20022;-59
2022/04/05 07:21:18;;;;;;;0.60;0.60;;;;;;;18.11;42.88;100430.09;5141652;27;20050;-60
2022/04/05 07:23:44;;;;;;;0.60;0.60;;;;;;;18.12;42.88;100419.13;5142900;27;20044;-59
2022/04/05 07:26:10;;;;;;;0.70;0.52;;;;;;;18.13;42.94;100420.81;5142157;27;20022;-60
2022/04/05 07:28:35;;;;;;;0.77;0.60;;;;;;;18.13;42.98;100418.13;5127176;27;20026;-60
2022/04/05 07:31:02;;;;;;;0.80;0.60;;;;;;;18.14;43.13;100417.13;5123997;28;20075;-60
2022/04/05 07:33:27;;;;;;;1.00;0.77;;;;;;;18.16;42.94;100416.94;5137553;27;20046;-59
2022/04/05 07:35:52;;;;;;;0.60;0.60;;;;;;;18.15;43.24;100416.09;5144395;27;20054;-59
2022/04/05 07:38:18;;;;;;;0.95;0.50;;;;;;;18.17;42.99;100406.00;5143975;27;20042;-61
2022/04/05 07:40:49;;;;;;;0.50;0.50;;;;;;;18.20;43.02;100413.72;5137917;27;20057;-61
2022/04/05 07:43:16;;;;;;;0.50;0.50;;;;;;;18.22;42.66;100409.00;5144868;27;20079;-56
2022/04/05 07:45:42;;;;;;;0.68;0.60;;;;;;;18.26;42.78;100412.16;5144157;27;20027;-58
2022/04/05 07:48:08;;;;;;;0.50;0.50;;;;;;;18.28;42.76;100412.00;5144365;27;20058;-58
2022/04/05 07:50:33;;;;;;;0.50;0.50;;;;;;;18.30;42.70;100416.19;5144254;27;20035;-57
2022/04/05 07:52:58;;;;;;;0.70;0.65;;;;;;;18.31;42.79;100412.50;5144524;27;20058;-57
2022/04/05 07:55:23;;;;;;;0.68;0.68;;;;;;;18.33;42.57;100413.16;5143566;27;20034;-57
2022/04/05 07:57:49;;;;;;;0.60;0.55;;;;;;;18.36;42.52;100411.97;5144583;27;20019;-57
2022/04/05 08:00:15;;;;;;;0.63;0.50;;;;;;;18.38;42.69;100409.91;5143949;27;20030;-58
2022/04/05 08:02:40;;;;;;;0.60;0.60;;;;;;;18.41;42.51;100407.72;5144533;27;20042;-59
2022/04/05 08:05:06;;;;;;;0.50;0.50;;;;;;;18.44;42.45;100418.13;5143449;27;20046;-58
2022/04/05 08:07:31;;;;;;;1.55;0.50;;;;;;;18.46;42.23;100412.56;5144310;27;20051;-59
2022/04/05 08:09:57;;;;;;;0.60;0.60;;;;;;;18.48;42.30;100411.38;5142718;27;20030;-58
2022/04/05 08:12:23;;;;;;;0.60;0.60;;;;;;;18.50;42.08;100413.88;5144087;27;20023;-59
2022/04/05 08:14:48;;;;;;;0.50;0.50;;;;;;;18.52;42.24;100409.19;5143423;27;20059;-60
2022/04/05 08:17:13;;;;;;;0.50;0.50;;;;;;;18.55;42.14;100400.72;5144411;27;20026;-59
2022/04/05 08:19:38;;;;;;;0.57;0.57;;;;;;;18.58;42.32;100404.94;5143850;27;20088;-59
2022/04/05 08:22:04;;;;;;;0.50;0.50;;;;;;;18.59;41.84;100396.66;5140733;28;20031;-57
2022/04/05 08:24:29;;;;;;;0.80;0.70;;;;;;;18.63;41.97;100405.22;5143022;28;20019;-56
2022/04/05 08:26:54;;;;;;;0.45;0.45;;;;;;;18.65;42.00;100413.97;5135796;28;20024;-55
2022/04/05 08:29:19;;;;;;;0.50;0.50;;;;;;;18.66;42.15;100403.00;5138861;28;20031;-57
2022/04/05 08:31:45;;;;;;;1.25;0.63;;;;;;;18.70;41.90;100404.38;5143946;28;20031;-61
2022/04/05 08:34:10;;;;;;;1.27;0.45;;;;;;;18.73;42.07;100408.53;5132243;28;20023;-63
2022/04/05 08:36:35;;;;;;;0.43;0.43;;;;;;;18.78;42.15;100405.34;5139096;28;20043;-62
2022/04/05 08:39:00;;;;;;;0.63;0.50;;;;;;;18.82;42.18;100403.94;5141829;28;20022;-61
2022/04/05 08:41:27;;;;;;;1.05;0.60;;;;;;;18.85;41.92;100406.25;5137657;28;20043;-62
2022/04/05 08:43:52;;;;;;;0.75;0.60;;;;;;;18.89;42.08;100411.09;5122541;28;20132;-61
2022/04/05 08:46:20;;;;;;;0.52;0.50;;;;;;;18.94;42.03;100407.88;5140675;28;20107;-61
2022/04/05 08:48:47;;;;;;;0.50;0.50;;;;;;;18.95;42.27;100415.78;5140151;28;20019;-62
2022/04/05 08:51:13;;;;;;;0.60;0.60;;;;;;;19.00;42.20;100417.09;5140736;28;20034;-62
2022/04/05 08:53:39;;;;;;;0.50;0.50;;;;;;;19.03;42.20;100417.59;5140827;28;20019;-61
2022/04/05 08:56:04;;;;;;;0.50;0.50;;;;;;;19.05;42.25;100410.16;5119676;28;20027;-61
2022/04/05 08:58:30;;;;;;;0.65;0.50;;;;;;;19.09;42.04;100408.75;5140816;28;20062;-60
2022/04/05 09:00:55;;;;;;;0.75;0.50;;;;;;;19.12;41.96;100421.06;5141311;28;20027;-62
2022/04/05 09:03:20;;;;;;;0.50;0.50;;;;;;;19.14;42.07;100419.81;5141536;28;20057;-61
2022/04/05 09:05:47;;;;;;;0.82;0.60;;;;;;;19.17;42.23;100414.09;5140582;28;20628;-60
2022/04/05 09:08:21;;;;;;;0.57;0.50;;;;;;;19.21;41.99;100415.41;5141527;28;20011;-59
2022/04/05 09:10:52;;;;;;;0.60;0.60;;;;;;;19.25;42.13;100417.72;5140973;28;20041;-60
2022/04/05 09:13:19;;;;;;;0.68;0.52;;;;;;;19.28;41.94;100415.47;5120967;28;20019;-62
2022/04/05 09:15:50;;;;;;;0.68;0.47;;;;;;;19.32;41.92;100410.56;5139207;28;20086;-58
2022/04/05 09:18:31;;;;;;;0.95;0.70;;;;;;;19.37;41.67;100424.31;5139906;28;20464;-60
2022/04/05 09:20:56;;;;;;;0.60;0.60;;;;;;;19.35;42.01;100411.03;5139808;27;20026;-60
2022/04/05 09:23:27;;;;;;;0.80;0.57;;;;;;;19.42;41.52;100414.69;5143544;27;20600;-59
2022/04/05 09:26:03;;;;;;;0.60;0.60;;;;;;;19.44;41.51;100419.88;5141043;27;20028;-59
2022/04/05 09:28:31;;;;;;;0.80;0.57;;;;;;;19.48;41.51;100422.03;5142713;27;20079;-60
2022/04/05 09:31:01;;;;;;;1.02;0.50;;;;;;;19.51;41.81;100420.84;5143490;27;20455;-60
2022/04/05 09:33:32;;;;;;;0.60;0.60;;;;;;;19.54;41.69;100417.78;5141343;27;20023;-60
2022/04/05 09:36:02;;;;;;;1.52;0.57;;;;;;;19.58;41.45;100423.63;5139832;27;20043;-61
2022/04/05 09:38:28;;;;;;;1.02;0.60;;;;;;;19.60;41.54;100417.03;5141333;27;20050;-60
2022/04/05 09:40:53;;;;;;;0.77;0.68;;;;;;;19.64;41.37;100420.22;5144410;27;20035;-62
2022/04/05 09:43:21;;;;;;;1.98;0.50;;;;;;;19.66;41.74;100424.41;5144817;27;20066;-61
2022/04/05 09:45:55;;;;;;;0.40;0.40;;;;;;;19.71;41.28;100422.00;5139385;27;20550;-60
2022/04/05 09:48:28;;;;;;;0.50;0.50;;;;;;;19.74;41.47;100434.25;5122580;27;20367;-62
2022/04/05 09:51:06;;;;;;;1.33;0.82;;;;;;;19.78;41.23;100430.16;5144681;27;20030;-59
2022/04/05 09:53:34;;;;;;;0.50;0.50;;;;;;;19.80;41.25;100436.25;5145071;27;20020;-61
2022/04/05 09:56:16;;;;;;;0.70;0.68;;;;;;;19.83;41.22;100426.91;5143076;27;20035;-62
2022/04/05 09:58:51;;;;;;;1.50;0.63;;;;;;;19.85;41.26;100433.81;5145245;27;20140;-58
2022/04/05 10:01:22;;;;;;;0.40;0.40;;;;;;;19.87;40.87;100430.91;5142869;27;20080;-58
2022/04/05 10:03:58;;;;;;;0.88;0.50;;;;;;;19.87;40.82;100434.44;5107591;28;20091;-59
2022/04/05 10:06:24;;;;;;;1.23;0.50;;;;;;;19.90;40.94;100434.09;5141413;27;20015;-59
2022/04/05 10:08:49;;;;;;;0.85;0.80;;;;;;;19.90;40.99;100431.38;5107855;28;20075;-59
2022/04/05 10:11:15;;;;;;;1.15;0.77;;;;;;;19.94;40.85;100431.84;5115227;27;20023;-59
2022/04/05 10:13:40;;;;;;;1.23;0.77;;;;;;;19.94;40.91;100432.69;5142044;27;20026;-60
2022/04/05 10:16:06;;;;;;;0.82;0.77;;;;;;;19.95;40.72;100437.06;5137112;27;20049;-60
2022/04/05 10:18:33;;;;;;;0.90;0.52;;;;;;;19.97;40.71;100431.50;5124888;27;20027;-61
2022/04/05 10:20:58;;;;;;;2.00;0.80;;;;;;;19.99;40.55;100432.13;5124017;27;20025;-61
2022/04/05 10:23:24;;;;;;;1.88;0.70;;;;;;;20.01;40.59;100440.03;5134808;27;20095;-61
2022/04/05 10:25:51;;;;;;;1.27;0.82;;;;;;;20.03;40.58;100429.88;5127156;27;20027;-61
2022/04/05 10:28:20;;;;;;;1.38;0.70;;;;;;;20.01;40.65;100427.38;5146528;27;20034;-61
2022/04/05 10:30:57;;;;;;;0.75;0.50;;;;;;;20.06;40.53;100435.75;5145891;27;20027;-61
2022/04/05 10:33:34;;;;;;;1.17;0.73;;;;;;;20.07;40.66;100445.53;5145559;27;20068;-60
2022/04/05 10:36:00;;;;;;;1.40;0.90;;;;;;;20.07;40.44;100437.41;5126990;27;20063;-60
2022/04/05 10:38:27;;;;;;;1.10;0.70;;;;;;;20.10;40.39;100441.63;5132408;27;20019;-60
2022/04/05 10:41:15;;;;;;;1.20;0.70;;;;;;;20.12;40.47;100444.94;5132769;27;20036;-61
2022/04/05 10:43:41;;;;;;;1.30;0.60;;;;;;;20.11;40.31;100441.41;5143376;27;20042;-60
2022/04/05 10:46:08;;;;;;;0.93;0.60;;;;;;;20.15;40.40;100441.88;5145028;27;20253;-60
2022/04/05 10:48:33;;;;;;;1.92;0.60;;;;;;;20.16;40.28;100441.69;5140044;27;20094;-60
2022/04/05 10:51:01;;;;;;;1.40;0.80;;;;;;;20.18;40.42;100438.81;5142050;27;20012;-60
2022/04/05 10:53:33;;;;;;;0.90;0.80;;;;;;;20.22;40.28;100440.13;5141860;27;20023;-60
2022/04/05 10:56:09;;;;;;;0.63;0.63;;;;;;;20.22;40.40;100424.75;5136656;27;20035;-61
2022/04/05 10:59:05;;;;;;;1.63;0.60;;;;;;;20.26;40.57;100429.75;5143979;27;20340;-60
2022/04/05 11:01:43;;;;;;;1.73;0.75;;;;;;;20.26;40.62;100435.16;5133357;27;20038;-60
2022/04/05 11:04:18;;;;;;;1.05;0.60;;;;;;;20.27;40.23;100442.25;5145201;27;20019;-60
2022/04/05 11:07:05;;;;;;;1.35;0.77;;;;;;;20.28;40.65;100442.06;5139193;27;20023;-60
2022/04/05 11:09:40;;;;;;;0.90;0.60;;;;;;;20.29;40.15;100432.91;5124865;28;20028;-61
2022/04/05 11:12:10;;;;;;;0.70;0.50;;;;;;;20.30;40.65;100437.28;5126088;27;20027;-61
2022/04/05 11:14:41;;;;;;;1.02;0.60;;;;;;;20.32;40.25;100453.31;5144887;27;20045;-61
2022/04/05 11:17:07;;;;;;;0.85;0.50;;;;;;;20.32;40.54;100448.75;5145461;27;20109;-61
2022/04/05 11:19:41;;;;;;;1.05;0.70;;;;;;;20.34;40.32;100443.16;5145395;27;20079;-61
2022/04/05 11:22:22;;;;;;;1.00;0.77;;;;;;;20.35;40.46;100442.97;5137711;27;20049;-61